Time;durP1;ratioP1;P1;durP2;ratioP2;P2;SDS_P1;SDS_P2;PMS_P1;PMS_P2;Temp;Humidity;BMP_temperature;BMP_pressure;BME280_temperature;BME280_humidity;BME280_pressure;Samples;Min_cycle;Max_cycle;Signal;HPM_P1;HPM_P2
2021/10/24 00:01:00;;;;;;;;;22.50;15.00;;;;;15.62;75.20;102007.19;5040158;28;45222;-81
2021/10/24 00:03:25;;;;;;;;;17.00;14.00;;;;;15.61;75.78;101997.50;5040001;28;45363;-81
2021/10/24 00:05:51;;;;;;;;;17.00;17.00;;;;;15.61;75.58;101996.66;5039985;28;45518;-81
2021/10/24 00:08:17;;;;;;;;;20.50;17.25;;;;;15.56;76.70;101994.31;5021654;28;46825;-81
2021/10/24 00:10:43;;;;;;;;;15.75;12.25;;;;;15.53;75.88;101990.97;5022149;28;45888;-81
2021/10/24 00:13:08;;;;;;;;;22.00;17.00;;;;;15.48;76.84;101998.44;5045669;28;45363;-81
2021/10/24 00:15:34;;;;;;;;;18.00;16.00;;;;;15.35;76.98;101988.59;5040493;28;45411;-81
2021/10/24 00:17:59;;;;;;;;;17.50;13.75;;;;;15.36;76.68;101981.47;5022449;28;47971;-81
2021/10/24 00:20:24;;;;;;;;;19.75;15.50;;;;;15.30;77.62;101981.88;5043778;28;45289;-81
2021/10/24 00:22:50;;;;;;;;;16.50;15.75;;;;;15.29;77.60;101988.19;5042689;28;45198;-81
2021/10/24 00:25:15;;;;;;;;;17.00;15.00;;;;;15.20;78.19;101981.66;5039426;28;45394;-81
2021/10/24 00:27:41;;;;;;;;;14.00;12.00;;;;;15.13;78.18;101979.50;5045342;28;46306;-81
2021/10/24 00:30:06;;;;;;;;;20.00;15.00;;;;;15.16;78.57;101988.13;5039646;28;45214;-81
2021/10/24 00:32:32;;;;;;;;;21.00;14.25;;;;;15.11;78.56;101984.09;5021512;28;45254;-81
2021/10/24 00:34:58;;;;;;;;;19.50;15.75;;;;;15.08;78.51;101976.31;5021594;28;45265;-81
2021/10/24 00:37:23;;;;;;;;;18.50;15.00;;;;;15.10;78.71;101975.25;5039179;28;45209;-81
2021/10/24 00:39:49;;;;;;;;;22.25;15.75;;;;;15.07;79.19;101977.25;5039027;28;45250;-81
2021/10/24 00:42:14;;;;;;;;;15.75;14.50;;;;;15.08;79.12;101982.47;5039533;28;45376;-81
2021/10/24 00:44:40;;;;;;;;;16.50;12.00;;;;;15.16;78.60;101971.31;5039588;28;45412;-81
2021/10/24 00:47:06;;;;;;;;;9.75;8.00;;;;;15.13;79.17;101985.66;5039109;28;46655;-81
2021/10/24 00:49:34;;;;;;;;;20.25;14.00;;;;;15.18;78.58;101982.72;5021273;28;45522;-81
2021/10/24 00:52:00;;;;;;;;;20.00;13.50;;;;;15.11;78.76;101962.81;5039296;28;45247;-81
2021/10/24 00:54:27;;;;;;;;;16.75;13.50;;;;;15.06;79.03;101968.41;5020962;28;45242;-81
2021/10/24 00:56:54;;;;;;;;;14.75;11.25;;;;;15.08;78.89;101968.31;5053441;28;45428;-81
2021/10/24 00:59:24;;;;;;;;;11.25;11.00;;;;;15.15;78.74;101972.28;5042537;28;45467;-81
2021/10/24 01:01:49;;;;;;;;;16.00;14.75;;;;;15.07;78.98;101969.28;5042687;28;45273;-81
2021/10/24 01:04:15;;;;;;;;;18.25;15.25;;;;;15.19;78.53;101966.66;5024416;28;45714;-81
2021/10/24 01:06:42;;;;;;;;;13.50;13.00;;;;;15.12;78.50;101953.84;5024472;28;47044;-81
2021/10/24 01:09:14;;;;;;;;;16.50;10.25;;;;;15.25;78.44;101970.69;5042209;28;45282;-81
2021/10/24 01:11:41;;;;;;;;;14.25;14.00;;;;;15.10;79.25;101955.78;5042555;28;45311;-81
2021/10/24 01:14:11;;;;;;;;;18.00;15.50;;;;;15.12;78.84;101957.34;5047909;28;45535;-81
2021/10/24 01:16:39;;;;;;;;;13.50;13.00;;;;;15.17;78.67;101957.91;5024455;28;46120;-81
2021/10/24 01:19:06;;;;;;;;;17.50;11.25;;;;;15.17;78.29;101954.41;5042204;28;45331;-81
2021/10/24 01:21:33;;;;;;;;;17.00;11.25;;;;;15.18;78.79;101961.44;5042246;28;45240;-81
2021/10/24 01:23:58;;;;;;;;;18.00;15.25;;;;;15.13;78.58;101952.88;5042131;28;45438;-81
2021/10/24 01:26:24;;;;;;;;;16.75;13.75;;;;;15.11;79.03;101958.34;5041750;28;45340;-81
2021/10/24 01:28:50;;;;;;;;;12.25;11.50;;;;;15.17;78.58;101957.06;5030056;28;45838;-81
2021/10/24 01:31:16;;;;;;;;;20.25;15.00;;;;;15.20;78.29;101949.72;5024167;28;45439;-81
2021/10/24 01:33:41;;;;;;;;;17.50;10.75;;;;;15.11;78.91;101944.19;5023981;28;45444;-81
2021/10/24 01:36:10;;;;;;;;;14.25;12.75;;;;;15.16;78.40;101948.22;5041842;28;45997;-81
2021/10/24 01:38:37;;;;;;;;;13.00;10.25;;;;;15.11;79.43;101942.38;5023861;28;45780;-81
2021/10/24 01:41:07;;;;;;;;;15.00;12.25;;;;;15.03;79.39;101934.03;5024175;28;45301;-81
2021/10/24 01:43:32;;;;;;;;;16.00;11.25;;;;;14.97;79.50;101931.78;5041834;28;45412;-81
2021/10/24 01:45:58;;;;;;;;;12.50;12.25;;;;;14.97;79.62;101929.13;5041929;28;45469;-81
2021/10/24 01:48:24;;;;;;;;;14.50;12.75;;;;;14.98;79.30;101929.03;5023607;28;45486;-81
2021/10/24 01:50:50;;;;;;;;;16.50;13.50;;;;;14.90;80.07;101920.72;5041696;28;45568;-81
2021/10/24 01:53:19;;;;;;;;;17.50;13.00;;;;;14.94;79.88;101922.19;5041653;28;45293;-81
2021/10/24 01:55:45;;;;;;;;;17.50;12.25;;;;;14.88;80.51;101911.13;5027459;28;46264;-81
2021/10/24 01:58:11;;;;;;;;;12.25;11.50;;;;;14.84;80.13;101910.47;5050622;28;45423;-81
2021/10/24 02:00:37;;;;;;;;;13.50;11.75;;;;;14.81;80.39;101897.41;5023657;28;45349;-81
2021/10/24 02:03:02;;;;;;;;;11.00;10.25;;;;;14.84;80.34;101891.84;5041568;28;45467;-81
2021/10/24 02:05:28;;;;;;;;;15.25;13.25;;;;;14.83;80.33;101890.19;5041342;28;46354;-81
2021/10/24 02:07:53;;;;;;;;;15.00;12.75;;;;;14.85;80.40;101882.06;5040311;28;45360;-81
2021/10/24 02:10:19;;;;;;;;;18.50;12.75;;;;;14.90;80.25;101882.63;5041270;28;45388;-81
2021/10/24 02:12:45;;;;;;;;;14.50;13.00;;;;;14.92;80.11;101883.38;5045919;28;45542;-81
2021/10/24 02:15:11;;;;;;;;;14.00;10.00;;;;;14.93;80.30;101885.91;5044255;28;46173;-81
2021/10/24 02:17:37;;;;;;;;;13.00;12.00;;;;;14.88;80.47;101874.75;5041234;28;45260;-81
2021/10/24 02:20:05;;;;;;;;;15.75;11.00;;;;;14.89;80.42;101878.25;5041316;28;45253;-81
2021/10/24 02:22:32;;;;;;;;;14.50;13.00;;;;;14.87;80.56;101870.38;5041216;28;45338;-81
2021/10/24 02:24:57;;;;;;;;;13.00;13.00;;;;;14.87;80.55;101869.53;5040942;28;45487;-81
2021/10/24 02:27:23;;;;;;;;;15.75;11.75;;;;;14.86;80.67;101874.00;5046016;28;45306;-81
2021/10/24 02:29:48;;;;;;;;;12.75;11.00;;;;;14.87;80.38;101861.56;5041970;28;45448;-81
2021/10/24 02:32:14;;;;;;;;;19.00;14.25;;;;;14.89;80.29;101868.47;5023253;28;45516;-81
2021/10/24 02:34:40;;;;;;;;;16.25;15.00;;;;;14.84;80.40;101864.44;5040763;28;46284;-81
2021/10/24 02:37:06;;;;;;;;;12.00;11.75;;;;;14.86;80.14;101858.03;5023010;28;45266;-81
2021/10/24 02:39:31;;;;;;;;;18.75;11.75;;;;;14.79;80.59;101853.25;5040893;28;45546;-81
2021/10/24 02:41:56;;;;;;;;;15.00;14.00;;;;;14.82;79.99;101856.56;5023107;28;45487;-81
2021/10/24 02:44:22;;;;;;;;;18.50;9.75;;;;;14.73;80.42;101853.66;5040741;28;45292;-81
2021/10/24 02:46:49;;;;;;;;;14.50;12.50;;;;;14.72;80.17;101852.81;5023038;28;45516;-81
2021/10/24 02:49:15;;;;;;;;;13.00;9.75;;;;;14.63;80.80;101850.78;5041010;28;45463;-81
2021/10/24 02:51:41;;;;;;;;;10.00;9.50;;;;;14.62;80.87;101846.41;5043247;28;45253;-81
2021/10/24 02:54:07;;;;;;;;;10.75;10.00;;;;;14.52;80.98;101845.31;5040322;28;46091;-81
2021/10/24 02:56:32;;;;;;;;;14.50;12.50;;;;;14.47;82.36;101850.09;5039385;28;45439;-81
2021/10/24 02:58:59;;;;;;;;;12.50;10.25;;;;;14.45;81.92;101839.56;5022953;28;45341;-81
2021/10/24 03:01:24;;;;;;;;;12.00;12.00;;;;;14.41;81.65;101829.22;5040819;28;45472;-81
2021/10/24 03:03:50;;;;;;;;;13.50;10.75;;;;;14.41;82.28;101834.53;5022389;28;47990;-81
2021/10/24 03:06:15;;;;;;;;;8.50;8.25;;;;;14.40;82.12;101830.16;5040824;28;45289;-81
2021/10/24 03:08:41;;;;;;;;;18.25;12.00;;;;;14.45;82.25;101836.03;5040552;28;45470;-81
2021/10/24 03:11:06;;;;;;;;;11.50;10.00;;;;;14.31;82.78;101830.75;5022880;28;45381;-81
2021/10/24 03:13:31;;;;;;;;;13.75;10.75;;;;;14.36;82.46;101828.66;5028589;28;47909;-81
2021/10/24 03:15:57;;;;;;;;;13.50;12.00;;;;;14.34;82.50;101830.56;5040554;28;45226;-81
2021/10/24 03:18:22;;;;;;;;;12.00;9.25;;;;;14.29;82.89;101833.53;5039850;28;45237;-81
2021/10/24 03:20:47;;;;;;;;;11.00;10.25;;;;;14.32;83.20;101832.44;5040689;28;45230;-81
2021/10/24 03:23:14;;;;;;;;;18.50;10.25;;;;;14.37;82.61;101831.22;5039845;28;45284;-81
2021/10/24 03:25:39;;;;;;;;;11.00;9.75;;;;;14.32;83.05;101830.66;5040381;28;45378;-81
2021/10/24 03:28:04;;;;;;;;;14.00;13.00;;;;;14.34;82.85;101831.41;5046390;28;45562;-81
2021/10/24 03:30:31;;;;;;;;;11.50;11.50;;;;;14.43;82.78;101825.50;5040382;28;45443;-81
2021/10/24 03:32:57;;;;;;;;;15.50;10.25;;;;;14.43;82.45;101822.84;5021847;28;47269;-81
2021/10/24 03:35:22;;;;;;;;;10.50;10.25;;;;;14.50;82.00;101826.81;5040313;28;45939;-81
2021/10/24 03:37:48;;;;;;;;;14.00;10.25;;;;;14.55;82.13;101830.03;5039984;28;45446;-81
2021/10/24 03:40:13;;;;;;;;;13.50;11.75;;;;;14.61;81.85;101823.44;5021906;28;45434;-81
2021/10/24 03:42:39;;;;;;;;;14.75;13.50;;;;;14.65;81.82;101824.09;5040030;28;46480;-81
2021/10/24 03:45:05;;;;;;;;;15.75;11.25;;;;;14.67;81.89;101830.97;5040178;28;45379;-81
2021/10/24 03:47:30;;;;;;;;;15.00;13.00;;;;;14.65;81.58;101834.72;5039949;28;45167;-81
2021/10/24 03:49:56;;;;;;;;;14.25;13.00;;;;;14.68;81.60;101840.66;5039927;28;45516;-81
2021/10/24 03:52:21;;;;;;;;;14.50;12.25;;;;;14.67;81.71;101836.28;5039829;28;45435;-81
2021/10/24 03:54:46;;;;;;;;;16.25;13.00;;;;;14.67;81.77;101830.97;5039631;28;45250;-81
2021/10/24 03:57:12;;;;;;;;;16.75;12.00;;;;;14.75;81.69;101836.63;5051357;28;45281;-81
2021/10/24 03:59:37;;;;;;;;;16.75;12.50;;;;;14.69;81.53;101837.06;5039986;28;45463;-81
2021/10/24 04:02:03;;;;;;;;;15.75;14.00;;;;;14.74;81.77;101847.41;5039623;28;45360;-81
2021/10/24 04:04:29;;;;;;;;;16.50;13.25;;;;;14.66;82.74;101845.22;5039580;28;45257;-81
2021/10/24 04:06:54;;;;;;;;;14.25;12.25;;;;;14.66;81.84;101842.56;5021794;28;45279;-81
2021/10/24 04:09:19;;;;;;;;;13.75;12.75;;;;;14.69;82.00;101855.66;5021601;28;45716;-81
2021/10/24 04:11:45;;;;;;;;;16.25;11.75;;;;;14.63;82.19;101850.78;5039560;28;46795;-81
2021/10/24 04:14:10;;;;;;;;;17.25;12.00;;;;;14.64;82.64;101855.13;5045366;28;45267;-81
2021/10/24 04:16:37;;;;;;;;;18.75;16.25;;;;;14.66;81.92;101863.00;5022851;28;45449;-81
2021/10/24 04:19:02;;;;;;;;;20.00;13.00;;;;;14.64;82.71;101863.13;5019581;28;45444;-81
2021/10/24 04:21:28;;;;;;;;;19.00;16.00;;;;;14.56;82.30;101860.97;5019578;28;45449;-81
2021/10/24 04:23:53;;;;;;;;;17.75;16.50;;;;;14.51;82.18;101855.09;5019604;28;45422;-81
2021/10/24 04:26:18;;;;;;;;;22.00;15.00;;;;;14.48;82.36;101857.94;5029918;28;45325;-81
2021/10/24 04:28:44;;;;;;;;;20.50;17.25;;;;;14.40;82.28;101846.09;5043798;28;45373;-81
2021/10/24 04:31:09;;;;;;;;;18.50;15.50;;;;;14.37;82.94;101851.63;5061012;28;45473;-81
2021/10/24 04:33:35;;;;;;;;;15.25;15.25;;;;;14.40;82.91;101856.75;5063134;28;45256;-81
2021/10/24 04:36:00;;;;;;;;;17.75;16.00;;;;;14.30;83.19;101859.13;5063027;28;45247;-81
2021/10/24 04:38:28;;;;;;;;;18.75;14.25;;;;;14.30;83.17;101850.28;5062906;28;45161;-81
2021/10/24 04:40:53;;;;;;;;;16.75;15.00;;;;;14.24;83.46;101848.91;5059749;28;45439;-81
2021/10/24 04:43:19;;;;;;;;;14.75;14.75;;;;;14.30;83.62;101858.25;5024997;28;45372;-81
2021/10/24 04:45:44;;;;;;;;;16.50;15.00;;;;;14.22;83.94;101849.00;5043260;28;45392;-81
2021/10/24 04:48:09;;;;;;;;;18.50;13.00;;;;;14.18;84.46;101855.47;5052345;28;45501;-81
2021/10/24 04:50:35;;;;;;;;;17.00;15.75;;;;;14.18;84.64;101851.97;5060087;28;45571;-81
2021/10/24 04:53:08;;;;;;;;;16.50;12.00;;;;;14.14;84.93;101845.13;5052077;28;45415;-81
2021/10/24 04:55:34;;;;;;;;;12.75;12.25;;;;;13.96;85.68;101835.69;5059292;28;45220;-81
2021/10/24 04:58:00;;;;;;;;;18.25;13.00;;;;;13.91;85.46;101840.47;5053059;28;45203;-81
2021/10/24 05:00:26;;;;;;;;;20.25;13.50;;;;;13.86;85.59;101838.94;5062591;28;45546;-81
2021/10/24 05:02:51;;;;;;;;;16.50;13.00;;;;;13.60;87.10;101836.22;5062945;28;45422;-81
2021/10/24 05:05:17;;;;;;;;;15.25;14.00;;;;;13.58;87.93;101838.13;5062703;28;45353;-81
2021/10/24 05:07:43;;;;;;;;;11.50;11.25;;;;;13.55;88.07;101833.88;5052629;28;45420;-80
2021/10/24 05:10:09;;;;;;;;;17.75;16.25;;;;;13.58;88.12;101835.47;5024310;28;47446;-81
2021/10/24 05:12:35;;;;;;;;;16.00;11.75;;;;;13.54;89.48;101837.47;5043042;28;45367;-81
2021/10/24 05:15:01;;;;;;;;;14.50;13.75;;;;;13.53;89.05;101832.25;5060522;28;45297;-81
2021/10/24 05:17:27;;;;;;;;;16.50;15.50;;;;;13.55;89.39;101838.34;5063724;28;45159;-81
2021/10/24 05:19:52;;;;;;;;;18.50;16.75;;;;;13.56;88.35;101830.28;5045678;28;47104;-81
2021/10/24 05:22:20;;;;;;;;;17.00;13.50;;;;;13.70;88.24;101832.06;5080357;28;45177;-81
2021/10/24 05:24:45;;;;;;;;;17.00;15.00;;;;;13.74;88.18;101826.47;5083589;28;44760;-81
2021/10/24 05:27:10;;;;;;;;;17.75;16.25;;;;;13.74;88.25;101831.78;5086450;28;44799;-80
2021/10/24 05:29:36;;;;;;;;;14.00;14.00;;;;;13.72;88.51;101824.84;5065972;28;48362;-80
2021/10/24 05:32:01;;;;;;;;;22.50;17.75;;;;;13.81;87.99;101825.13;5063835;28;45328;-80
2021/10/24 05:34:26;;;;;;;;;17.00;16.25;;;;;13.78;88.02;101830.63;5073913;28;45245;-81
2021/10/24 05:36:52;;;;;;;;;21.75;14.75;;;;;13.77;88.58;101818.28;5044570;28;45332;-81
2021/10/24 05:39:17;;;;;;;;;19.50;17.75;;;;;13.84;88.03;101829.34;5044377;28;48163;-80
2021/10/24 05:41:43;;;;;;;;;17.00;15.25;;;;;13.81;88.08;101825.13;5062684;28;45516;-79
2021/10/24 05:44:08;;;;;;;;;19.75;18.00;;;;;13.81;88.73;101833.09;5044578;28;45334;-79
2021/10/24 05:46:34;;;;;;;;;19.75;17.50;;;;;14.00;88.01;101814.16;5062176;28;45529;-80
2021/10/24 05:48:59;;;;;;;;;19.50;16.25;;;;;13.88;88.02;101825.56;5061985;28;45518;-79
2021/10/24 05:51:25;;;;;;;;;19.25;18.25;;;;;14.10;86.85;101825.06;5062250;28;45521;-80
2021/10/24 05:53:51;;;;;;;;;17.00;16.75;;;;;14.00;87.43;101810.66;5062013;28;45304;-80
2021/10/24 05:56:17;;;;;;;;;22.00;18.75;;;;;13.95;86.99;101815.41;5070345;28;45617;-80
2021/10/24 05:58:42;;;;;;;;;12.00;9.75;;;;;14.00;87.13;101808.84;5064630;28;46664;-79
2021/10/24 06:01:08;;;;;;;;;14.00;13.25;;;;;13.98;87.67;101812.56;5061939;28;45202;-79
2021/10/24 06:03:34;;;;;;;;;22.25;18.25;;;;;13.96;87.72;101809.13;5061861;28;45287;-79
2021/10/24 06:05:59;;;;;;;;;20.00;16.75;;;;;13.70;88.92;101806.34;5061823;28;45184;-80
2021/10/24 06:08:25;;;;;;;;;24.75;16.75;;;;;13.56;89.44;101809.06;5061494;28;45550;-80
2021/10/24 06:11:02;;;;;;;;;21.75;18.00;;;;;13.70;88.70;101808.16;5061571;28;45415;-80
2021/10/24 06:13:28;;;;;;;;;18.00;15.50;;;;;13.64;89.40;101812.06;5066559;28;45344;-80
2021/10/24 06:15:53;;;;;;;;;18.75;18.50;;;;;13.69;89.51;101803.78;5061468;28;45346;-80
2021/10/24 06:18:18;;;;;;;;;17.75;16.75;;;;;13.70;89.47;101805.50;5061352;28;46155;-80
2021/10/24 06:20:44;;;;;;;;;20.75;14.50;;;;;13.62;89.10;101808.66;5043456;28;45369;-79
2021/10/24 06:23:09;;;;;;;;;19.00;15.75;;;;;13.71;89.07;101807.22;5061110;28;45501;-80
2021/10/24 06:25:35;;;;;;;;;17.25;16.25;;;;;13.68;89.22;101807.41;5043383;28;45566;-80
2021/10/24 06:28:00;;;;;;;;;17.00;14.25;;;;;13.80;89.16;101806.63;5066336;28;46185;-79
2021/10/24 06:30:26;;;;;;;;;22.00;17.00;;;;;13.66;89.13;101807.50;5061331;28;45237;-80
2021/10/24 06:32:52;;;;;;;;;22.25;17.50;;;;;13.65;88.94;101812.91;5060965;28;45158;-80
2021/10/24 06:35:17;;;;;;;;;14.75;14.00;;;;;13.78;88.66;101809.38;5061406;28;45273;-80
2021/10/24 06:37:45;;;;;;;;;22.75;17.00;;;;;13.86;88.34;101803.56;5060941;28;45425;-81
2021/10/24 06:40:13;;;;;;;;;17.75;17.00;;;;;13.91;88.09;101801.47;5061055;28;45646;-80
2021/10/24 06:42:39;;;;;;;;;18.00;14.00;;;;;13.53;88.79;101805.72;5061203;28;45422;-80
2021/10/24 06:45:06;;;;;;;;;20.75;16.50;;;;;13.51;89.59;101799.66;5043021;28;45347;-80
2021/10/24 06:47:32;;;;;;;;;18.25;12.75;;;;;13.40;90.37;101805.63;5060592;28;46361;-80
2021/10/24 06:49:58;;;;;;;;;14.25;12.00;;;;;13.39;90.37;101794.16;5061090;28;45258;-80
2021/10/24 06:52:23;;;;;;;;;21.50;16.00;;;;;13.51;90.36;101800.50;5060977;28;45248;-80
2021/10/24 06:54:49;;;;;;;;;27.00;17.00;;;;;13.50;90.49;101806.75;5041661;28;45330;-80
2021/10/24 06:57:14;;;;;;;;;17.75;15.75;;;;;13.49;89.88;101805.91;5072163;28;45445;-80
2021/10/24 06:59:42;;;;;;;;;23.75;17.25;;;;;13.40;90.42;101795.00;5042847;28;45228;-81
2021/10/24 07:02:08;;;;;;;;;17.00;12.50;;;;;13.33;91.18;101799.00;5060944;28;45359;-80
2021/10/24 07:04:34;;;;;;;;;22.50;13.75;;;;;13.41;90.92;101800.22;5060508;28;45291;-80
2021/10/24 07:06:59;;;;;;;;;21.50;12.75;;;;;13.50;90.72;101793.50;5060324;28;46469;-80
2021/10/24 07:09:24;;;;;;;;;17.50;16.00;;;;;13.51;90.37;101807.63;5060422;28;45343;-80
2021/10/24 07:11:50;;;;;;;;;17.75;16.50;;;;;13.44;90.30;101797.41;5060936;28;45409;-80
2021/10/24 07:14:15;;;;;;;;;15.00;13.00;;;;;13.40;91.20;101798.53;5066225;28;45545;-80
2021/10/24 07:16:41;;;;;;;;;20.00;16.00;;;;;13.39;90.74;101793.31;5042070;28;48134;-80
2021/10/24 07:19:06;;;;;;;;;18.75;14.50;;;;;13.30;91.97;101799.19;5060398;28;45235;-80
2021/10/24 07:21:32;;;;;;;;;21.00;15.25;;;;;13.26;91.85;101800.34;5060645;28;45858;-80
2021/10/24 07:23:57;;;;;;;;;12.50;12.25;;;;;13.24;92.46;101796.91;5060336;28;45233;-80
2021/10/24 07:26:22;;;;;;;;;13.00;12.00;;;;;13.33;92.08;101807.81;5042252;28;46113;-81
2021/10/24 07:28:48;;;;;;;;;19.00;14.00;;;;;13.31;91.56;101799.09;5066481;28;45192;-80
2021/10/24 07:31:13;;;;;;;;;17.50;12.75;;;;;13.53;91.40;101803.94;5060419;28;45734;-80
2021/10/24 07:33:38;;;;;;;;;16.50;15.00;;;;;13.69;89.95;101809.09;5042150;28;45396;-80
2021/10/24 07:36:04;;;;;;;;;16.50;13.00;;;;;13.71;89.48;101801.91;5060192;28;45431;-80
2021/10/24 07:38:29;;;;;;;;;16.00;12.00;;;;;13.58;89.78;101793.84;5059972;28;45261;-80
2021/10/24 07:40:55;;;;;;;;;14.25;14.25;;;;;13.60;89.37;101794.63;5060813;28;45501;-80
2021/10/24 07:43:21;;;;;;;;;16.75;15.75;;;;;13.78;90.52;101789.94;5060298;28;45339;-80
2021/10/24 07:45:47;;;;;;;;;13.25;13.25;;;;;13.93;88.74;101791.59;5060207;28;45331;-80
2021/10/24 07:48:13;;;;;;;;;17.50;12.25;;;;;14.11;88.17;101793.03;5060003;28;45347;-81
2021/10/24 07:50:38;;;;;;;;;16.50;13.25;;;;;14.16;88.14;101788.31;5041968;28;45448;-81
2021/10/24 07:53:04;;;;;;;;;25.75;15.75;;;;;14.94;89.68;101772.41;5041870;28;45486;-80
2021/10/24 07:55:31;;;;;;;;;14.75;13.00;;;;;16.31;83.14;101776.63;5061934;28;45426;-81
2021/10/24 07:57:56;;;;;;;;;19.25;15.75;;;;;17.65;86.54;101771.53;5069759;28;45214;-81
2021/10/24 08:00:22;;;;;;;;;13.75;13.75;;;;;18.56;84.17;101755.03;5060322;28;45226;-81
2021/10/24 08:02:47;;;;;;;;;19.00;14.75;;;;;19.56;73.58;101754.31;5060353;28;45628;-81
2021/10/24 08:05:13;;;;;;;;;17.00;14.50;;;;;20.23;70.66;101748.16;5061534;28;45375;-81
2021/10/24 08:07:39;;;;;;;;;14.75;14.50;;;;;21.08;67.66;101745.47;5063545;28;45320;-81
2021/10/24 08:10:07;;;;;;;;;17.50;15.00;;;;;21.59;63.32;101747.66;5063468;28;45215;-81
2021/10/24 08:12:32;;;;;;;;;18.75;15.75;;;;;22.10;65.86;101750.75;5047961;28;45444;-82
2021/10/24 08:14:58;;;;;;;;;16.50;15.50;;;;;22.90;67.59;101747.84;5047662;28;46842;-82
2021/10/24 08:17:23;;;;;;;;;18.00;13.50;;;;;23.80;66.95;101743.72;5063129;28;45288;-82
2021/10/24 08:19:49;;;;;;;;;15.50;13.50;;;;;24.67;60.94;101743.09;5063444;28;45315;-82
2021/10/24 08:22:18;;;;;;;;;19.75;16.25;;;;;24.85;58.39;101737.50;5063337;28;45528;-82
2021/10/24 08:24:43;;;;;;;;;17.00;14.50;;;;;25.25;58.03;101740.09;5044709;28;48376;-82
2021/10/24 08:27:09;;;;;;;;;16.00;12.50;;;;;25.70;57.83;101744.81;5066139;28;45345;-82
2021/10/24 08:29:34;;;;;;;;;14.25;12.75;;;;;25.78;50.09;101743.06;5047448;28;45448;-82
2021/10/24 08:32:02;;;;;;;;;15.75;12.75;;;;;26.06;53.15;101750.47;5063469;28;45218;-82
2021/10/24 08:34:28;;;;;;;;;10.00;9.25;;;;;26.32;50.46;101749.28;5062752;28;46104;-82
2021/10/24 08:36:54;;;;;;;;;15.00;14.00;;;;;26.34;47.67;101758.09;5045794;28;46000;-82
2021/10/24 08:39:19;;;;;;;;;14.75;13.00;;;;;26.88;47.31;101761.47;5063880;28;45347;-82
2021/10/24 08:41:48;;;;;;;;;11.00;11.00;;;;;27.28;47.52;101759.38;5063144;28;45381;-82
2021/10/24 08:44:14;;;;;;;;;11.50;11.50;;;;;27.46;42.36;101752.50;5062841;28;46174;-83
2021/10/24 08:46:40;;;;;;;;;18.25;13.25;;;;;27.80;45.29;101751.91;5062952;28;45525;-83
2021/10/24 08:49:07;;;;;;;;;13.75;11.50;;;;;27.98;41.68;101745.19;5044731;28;45419;-83
2021/10/24 08:51:33;;;;;;;;;12.50;11.75;;;;;28.32;39.66;101749.94;5062922;28;45329;-83
2021/10/24 08:54:00;;;;;;;;;13.50;11.25;;;;;27.75;39.07;101746.22;5062530;28;45472;-83
2021/10/24 08:56:28;;;;;;;;;11.50;11.50;;;;;27.74;40.81;101755.38;5054306;28;45643;-83
2021/10/24 08:58:54;;;;;;;;;7.25;6.50;;;;;27.50;38.03;101742.09;5064108;28;45213;-83
2021/10/24 09:01:20;;;;;;;;;14.25;12.50;;;;;27.59;40.59;101748.31;5062677;28;45256;-83
2021/10/24 09:04:09;;;;;;;;;13.25;12.75;;;;;28.01;40.21;101742.94;5044410;28;48336;-83
2021/10/24 09:07:00;;;;;;;;;21.50;17.25;;;;;28.29;38.17;101748.47;5062951;28;45635;-83
2021/10/24 09:09:27;;;;;;;;;17.50;13.75;;;;;28.30;38.59;101739.28;5044592;28;45367;-82
2021/10/24 09:12:11;;;;;;;;;14.50;12.00;;;;;28.42;36.32;101729.53;5062936;28;45299;-82
2021/10/24 09:14:52;;;;;;;;;14.00;14.00;;;;;28.64;36.51;101717.59;5060251;28;45540;-83
2021/10/24 09:17:17;;;;;;;;;17.25;13.50;;;;;28.66;37.40;101717.41;5045171;28;45450;-83
2021/10/24 09:19:49;;;;;;;;;11.25;11.25;;;;;28.70;36.93;101715.94;5062755;28;45536;-83
2021/10/24 09:22:33;;;;;;;;;12.75;12.50;;;;;28.65;35.98;101713.00;5045122;28;45392;-82
2021/10/24 09:25:01;;;;;;;;;13.00;12.25;;;;;28.68;36.87;101704.41;5063760;28;45528;-83
2021/10/24 09:27:31;;;;;;;;;12.75;12.25;;;;;28.61;35.85;101704.38;5050641;28;45228;-83
2021/10/24 09:30:09;;;;;;;;;15.50;11.75;;;;;28.48;35.70;101700.75;5032314;28;45424;-82
2021/10/24 09:32:53;;;;;;;;;8.50;8.00;;;;;27.99;34.57;101704.25;5062980;28;45407;-82
2021/10/24 09:35:32;;;;;;;;;13.25;11.00;;;;;27.82;36.74;101692.00;5063048;28;45389;-82
2021/10/24 09:38:01;;;;;;;;;15.00;12.75;;;;;27.56;36.61;101687.13;5061234;28;45224;-82
2021/10/24 09:40:30;;;;;;;;;13.25;12.50;;;;;27.17;37.48;101701.00;5063526;28;45307;-83
2021/10/24 09:43:28;;;;;;;;;16.00;14.00;;;;;26.40;37.68;101698.59;5044678;28;45206;-83
2021/10/24 09:45:57;;;;;;;;;14.50;12.00;;;;;26.30;37.80;101721.56;5064457;28;45659;-83
2021/10/24 09:48:26;;;;;;;;;11.50;11.50;;;;;25.70;38.45;101717.75;5046484;28;45405;-83
2021/10/24 09:51:00;;;;;;;;;10.00;10.00;;;;;25.60;38.84;101725.25;5047462;28;45235;-83
2021/10/24 09:53:29;;;;;;;;;14.50;10.75;;;;;25.25;39.23;101726.56;5064133;28;45602;-83
2021/10/24 09:55:55;;;;;;;;;12.25;11.50;;;;;25.10;39.96;101716.69;5069692;28;46280;-83
2021/10/24 09:58:22;;;;;;;;;11.75;10.50;;;;;25.01;40.19;101718.56;5051004;28;45569;-83
2021/10/24 10:00:48;;;;;;;;;14.50;14.50;;;;;25.01;40.00;101715.03;5045048;28;45442;-82
2021/10/24 10:03:18;;;;;;;;;15.00;12.50;;;;;24.96;40.09;101710.13;5062989;28;45343;-83
2021/10/24 10:05:44;;;;;;;;;12.50;11.00;;;;;24.88;40.66;101720.91;5045470;28;46126;-82
2021/10/24 10:08:12;;;;;;;;;11.00;11.00;;;;;24.59;40.42;101714.22;5062431;28;45166;-82
2021/10/24 10:10:47;;;;;;;;;13.50;12.75;;;;;24.17;41.73;101718.97;5062763;28;45370;-82
2021/10/24 10:13:14;;;;;;;;;14.25;13.50;;;;;24.17;41.53;101718.97;5049803;28;45906;-82
2021/10/24 10:15:43;;;;;;;;;11.00;10.00;;;;;24.01;41.40;101713.56;5062636;28;46402;-83
2021/10/24 10:18:09;;;;;;;;;14.75;10.75;;;;;24.04;42.29;101714.06;5044126;28;45563;-82
2021/10/24 10:20:46;;;;;;;;;15.00;12.00;;;;;24.12;41.77;101710.53;5062755;28;45319;-82
2021/10/24 10:23:12;;;;;;;;;11.00;8.75;;;;;24.01;42.54;101716.25;5044116;28;46331;-82
2021/10/24 10:25:43;;;;;;;;;12.50;11.00;;;;;24.05;42.54;101723.84;5044701;28;46450;-82
2021/10/24 10:28:12;;;;;;;;;12.75;12.75;;;;;24.13;43.14;101718.44;5065513;28;46105;-83
2021/10/24 10:30:43;;;;;;;;;12.75;10.50;;;;;24.29;42.94;101731.16;5061616;28;45379;-82
2021/10/24 10:33:29;;;;;;;;;12.25;10.00;;;;;24.40;42.38;101719.97;5061378;28;45267;-82
2021/10/24 10:35:55;;;;;;;;;15.25;11.50;;;;;24.35;42.54;101711.56;5061256;28;46303;-82
2021/10/24 10:38:39;;;;;;;;;14.00;11.00;;;;;24.44;41.81;101710.53;5060815;28;45562;-82
2021/10/24 10:41:11;;;;;;;;;14.75;10.00;;;;;24.31;42.92;101712.91;5043204;28;45238;-82
2021/10/24 10:43:36;;;;;;;;;14.50;10.25;;;;;24.25;42.68;101708.19;5061542;28;45469;-82
2021/10/24 10:46:04;;;;;;;;;14.00;12.00;;;;;24.20;42.65;101715.94;5043179;28;47346;-82
2021/10/24 10:48:43;;;;;;;;;13.75;11.25;;;;;24.11;42.90;101717.78;5061403;28;45269;-82
2021/10/24 10:51:19;;;;;;;;;13.25;11.50;;;;;23.98;42.84;101714.72;5061759;28;45328;-82
2021/10/24 10:53:44;;;;;;;;;14.25;11.00;;;;;23.90;43.42;101720.13;5060675;28;45450;-82
2021/10/24 10:56:12;;;;;;;;;15.00;13.00;;;;;23.97;44.11;101726.53;5068619;28;45516;-82
2021/10/24 10:58:43;;;;;;;;;18.75;13.75;;;;;24.28;43.80;101728.63;5064900;28;45162;-82
2021/10/24 11:01:27;;;;;;;;;15.00;13.00;;;;;24.38;43.81;101722.03;5042984;28;45387;-82
2021/10/24 11:03:56;;;;;;;;;16.25;13.25;;;;;24.20;43.95;101724.03;5042455;28;45577;-82
2021/10/24 11:06:29;;;;;;;;;13.00;13.00;;;;;24.06;43.33;101725.53;5060936;28;46246;-82
2021/10/24 11:08:56;;;;;;;;;13.00;13.00;;;;;23.97;43.72;101709.50;5060488;28;45461;-82